Time,TemperatureF,DewpointF,PressureIn,WindDirection,WindDirectionDegrees,WindSpeedMPH,WindSpeedGustMPH,Humidity,HourlyPrecipIn,Conditions,Clouds,dailyrainin,SolarRadiationWatts/m^2,SoftwareType,DateUTC
2013-10-19 00:01:00,48.0,43.7,29.94,NW,309,0.0,0.0,85,0.00,,,0.00,0.0,meteohub,2013-10-19 04:01:00,
2013-10-19 00:02:00,48.0,43.7,29.95,NW,309,0.0,0.0,85,0.00,,,0.00,0.0,meteohub,2013-10-19 04:02:00,
2013-10-19 00:03:00,48.2,43.9,29.95,NW,309,0.0,0.0,85,0.00,,,0.00,0.0,meteohub,2013-10-19 04:03:00,
2013-10-19 00:08:00,48.4,44.1,29.95,NW,309,0.0,4.0,85,0.00,,,0.00,0.0,meteohub,2013-10-19 04:08:00,
2013-10-19 00:13:00,48.2,43.9,29.94,NW,309,1.0,4.0,85,0.00,,,0.00,0.0,meteohub,2013-10-19 04:13:00,
2013-10-19 00:18:00,47.7,43.3,29.94,NW,309,1.0,4.0,85,0.00,,,0.00,0.0,meteohub,2013-10-19 04:18:00,
2013-10-19 00:23:00,47.1,43.2,29.94,NW,309,1.0,2.0,86,0.00,,,0.00,0.0,meteohub,2013-10-19 04:23:00,
2013-10-19 00:28:00,46.8,43.2,29.94,NW,309,2.0,2.0,87,0.00,,,0.00,0.0,meteohub,2013-10-19 04:28:00,
2013-10-19 00:34:00,46.6,43.2,29.94,NW,309,1.0,4.0,88,0.00,,,0.00,0.0,meteohub,2013-10-19 04:34:00,
2013-10-19 00:39:00,46.4,43.0,29.95,NW,309,0.0,4.0,88,0.00,,,0.00,0.0,meteohub,2013-10-19 04:39:00,
2013-10-19 00:44:00,46.4,43.0,29.95,NW,309,0.0,4.0,88,0.00,,,0.00,0.0,meteohub,2013-10-19 04:44:00,
2013-10-19 00:49:00,46.4,43.0,29.96,NW,309,0.0,2.0,88,0.00,,,0.00,0.0,meteohub,2013-10-19 04:49:00,
2013-10-19 00:54:00,46.2,42.8,29.95,NW,309,4.0,0.0,88,0.00,,,0.00,0.0,meteohub,2013-10-19 04:54:00,
2013-10-19 00:59:00,45.9,42.8,29.96,NW,309,2.0,0.0,89,0.00,,,0.00,0.0,meteohub,2013-10-19 04:59:00,
2013-10-19 01:05:00,45.9,42.8,29.96,NW,309,1.0,5.0,89,0.00,,,0.00,0.0,meteohub,2013-10-19 05:05:00,
2013-10-19 01:10:00,45.7,42.6,29.96,NW,309,0.0,5.0,89,0.00,,,0.00,0.0,meteohub,2013-10-19 05:10:00,
2013-10-19 01:15:00,45.7,42.6,29.96,NW,309,0.0,4.0,89,0.00,,,0.00,0.0,meteohub,2013-10-19 05:15:00,
2013-10-19 01:20:00,45.7,42.6,29.96,NW,308,0.0,4.0,89,0.00,,,0.00,0.0,meteohub,2013-10-19 05:20:00,
2013-10-19 01:25:00,45.1,42.1,29.96,NW,308,0.0,2.0,89,0.00,,,0.00,0.0,meteohub,2013-10-19 05:25:00,
2013-10-19 01:31:00,45.1,42.4,29.96,NW,308,0.0,2.0,90,0.00,,,0.00,0.0,meteohub,2013-10-19 05:31:00,
2013-10-19 01:36:00,45.1,42.4,29.96,NW,308,0.0,2.0,90,0.00,,,0.00,0.0,meteohub,2013-10-19 05:36:00,
2013-10-19 01:41:00,44.8,42.1,29.96,NW,308,0.0,1.0,90,0.00,,,0.00,0.0,meteohub,2013-10-19 05:41:00,
2013-10-19 01:46:00,44.8,42.1,29.96,NW,308,0.0,2.0,90,0.00,,,0.00,0.0,meteohub,2013-10-19 05:46:00,
2013-10-19 01:51:00,44.6,41.9,29.96,NW,308,1.0,2.0,90,0.00,,,0.00,0.0,meteohub,2013-10-19 05:51:00,
2013-10-19 01:56:00,44.4,41.7,29.96,NW,308,0.0,2.0,90,0.00,,,0.00,0.0,meteohub,2013-10-19 05:56:00,
2013-10-19 02:01:00,44.4,41.9,29.96,NW,308,0.0,2.0,91,0.00,,,0.00,0.0,meteohub,2013-10-19 06:01:00,
2013-10-19 02:07:00,44.4,41.7,29.96,NW,308,0.0,2.0,90,0.00,,,0.00,0.0,meteohub,2013-10-19 06:07:00,
2013-10-19 02:12:00,44.1,41.4,29.96,NW,308,0.0,2.0,90,0.00,,,0.00,0.0,meteohub,2013-10-19 06:12:00,
2013-10-19 02:17:00,43.7,41.2,29.96,NW,308,1.0,2.0,91,0.00,,,0.00,0.0,meteohub,2013-10-19 06:17:00,
2013-10-19 02:22:00,43.5,41.0,29.96,NW,308,1.0,4.0,91,0.00,,,0.00,0.0,meteohub,2013-10-19 06:22:00,
2013-10-19 02:27:00,43.5,41.0,29.96,NW,308,0.0,4.0,91,0.00,,,0.00,0.0,meteohub,2013-10-19 06:27:00,
2013-10-19 02:32:00,43.7,41.5,29.96,NW,308,0.0,4.0,92,0.00,,,0.00,0.0,meteohub,2013-10-19 06:32:00,
2013-10-19 02:37:00,44.1,41.9,29.96,NW,308,0.0,2.0,92,0.00,,,0.00,0.0,meteohub,2013-10-19 06:37:00,
2013-10-19 02:42:00,43.9,41.4,29.96,NW,308,0.0,2.0,91,0.00,,,0.00,0.0,meteohub,2013-10-19 06:42:00,
2013-10-19 02:47:00,43.9,41.4,29.96,NW,308,1.0,0.0,91,0.00,,,0.00,0.0,meteohub,2013-10-19 06:47:00,
2013-10-19 02:52:00,43.5,41.0,29.96,NW,308,2.0,2.0,91,0.00,,,0.00,0.0,meteohub,2013-10-19 06:52:00,
2013-10-19 02:57:00,43.2,40.6,29.96,NW,308,2.0,2.0,91,0.00,,,0.00,0.0,meteohub,2013-10-19 06:57:00,
2013-10-19 03:02:00,43.2,41.0,29.96,NW,308,2.0,2.0,92,0.00,,,0.00,0.0,meteohub,2013-10-19 07:02:00,
2013-10-19 03:07:00,43.2,41.0,29.96,NW,308,0.0,4.0,92,0.00,,,0.00,0.0,meteohub,2013-10-19 07:07:00,
2013-10-19 03:12:00,43.3,41.2,29.96,NW,308,0.0,4.0,92,0.00,,,0.00,0.0,meteohub,2013-10-19 07:12:00,
2013-10-19 03:17:00,43.3,41.2,29.96,NW,308,0.0,2.0,92,0.00,,,0.00,0.0,meteohub,2013-10-19 07:17:00,
2013-10-19 03:22:00,43.2,41.0,29.96,NW,308,0.0,2.0,92,0.00,,,0.00,0.0,meteohub,2013-10-19 07:22:00,
2013-10-19 03:27:00,43.0,40.8,29.96,NW,308,2.0,2.0,92,0.00,,,0.00,0.0,meteohub,2013-10-19 07:27:00,
2013-10-19 03:32:00,42.4,40.3,29.96,NW,308,2.0,4.0,92,0.00,,,0.00,0.0,meteohub,2013-10-19 07:32:00,
2013-10-19 03:37:00,42.4,40.3,29.96,NW,308,1.0,4.0,92,0.00,,,0.00,0.0,meteohub,2013-10-19 07:37:00,
2013-10-19 03:42:00,42.8,40.6,29.96,NW,308,0.0,4.0,92,0.00,,,0.00,0.0,meteohub,2013-10-19 07:42:00,
2013-10-19 03:47:00,42.8,40.6,29.96,NW,308,0.0,2.0,92,0.00,,,0.00,0.0,meteohub,2013-10-19 07:47:00,
2013-10-19 03:52:00,42.8,41.0,29.96,NW,308,0.0,2.0,93,0.00,,,0.00,0.0,meteohub,2013-10-19 07:52:00,
2013-10-19 03:57:00,42.6,40.5,29.96,NW,308,0.0,2.0,92,0.00,,,0.00,0.0,meteohub,2013-10-19 07:57:00,
2013-10-19 04:02:00,42.3,40.1,29.96,NW,308,1.0,2.0,92,0.00,,,0.00,0.0,meteohub,2013-10-19 08:02:00,
2013-10-19 04:07:00,42.3,40.1,29.96,NW,308,1.0,2.0,92,0.00,,,0.00,0.0,meteohub,2013-10-19 08:07:00,
2013-10-19 04:12:00,42.3,40.1,29.96,NW,308,0.0,4.0,92,0.00,,,0.00,0.0,meteohub,2013-10-19 08:12:00,
2013-10-19 04:17:00,42.3,40.5,29.96,NW,308,0.0,4.0,93,0.00,,,0.00,0.0,meteohub,2013-10-19 08:17:00,
2013-10-19 04:22:00,42.3,40.1,29.96,NW,308,1.0,2.0,92,0.00,,,0.00,0.0,meteohub,2013-10-19 08:22:00,
2013-10-19 04:27:00,42.3,40.5,29.96,NW,308,0.0,2.0,93,0.00,,,0.00,0.0,meteohub,2013-10-19 08:27:00,
2013-10-19 04:32:00,42.3,40.1,29.96,NW,308,0.0,2.0,92,0.00,,,0.00,0.0,meteohub,2013-10-19 08:32:00,
2013-10-19 04:37:00,42.1,39.9,29.96,NW,308,1.0,2.0,92,0.00,,,0.00,0.0,meteohub,2013-10-19 08:37:00,
2013-10-19 04:42:00,41.7,39.6,29.96,NW,308,2.0,2.0,92,0.00,,,0.00,0.0,meteohub,2013-10-19 08:42:00,
2013-10-19 04:47:00,41.7,39.6,29.96,NW,308,2.0,2.0,92,0.00,,,0.00,0.0,meteohub,2013-10-19 08:47:00,
2013-10-19 04:52:00,41.5,39.4,29.96,NW,308,0.0,4.0,92,0.00,,,0.00,0.0,meteohub,2013-10-19 08:52:00,
2013-10-19 04:57:00,41.9,40.1,29.97,NW,308,0.0,4.0,93,0.00,,,0.00,0.0,meteohub,2013-10-19 08:57:00,
2013-10-19 05:02:00,41.7,39.6,29.96,NW,308,0.0,4.0,92,0.00,,,0.00,0.0,meteohub,2013-10-19 09:02:00,
2013-10-19 05:07:00,42.1,40.3,29.96,NW,308,0.0,1.0,93,0.00,,,0.00,0.0,meteohub,2013-10-19 09:07:00,
2013-10-19 05:12:00,42.3,40.5,29.96,NW,308,0.0,0.0,93,0.00,,,0.00,0.0,meteohub,2013-10-19 09:12:00,
2013-10-19 05:17:00,41.7,39.6,29.97,NW,308,1.0,1.0,92,0.00,,,0.00,0.0,meteohub,2013-10-19 09:17:00,
2013-10-19 05:22:00,41.4,39.2,29.96,NW,308,0.0,2.0,92,0.00,,,0.00,0.0,meteohub,2013-10-19 09:22:00,
2013-10-19 05:27:00,41.4,39.6,29.96,NW,308,0.0,2.0,93,0.00,,,0.00,0.0,meteohub,2013-10-19 09:27:00,
2013-10-19 05:32:00,41.5,39.7,29.96,NW,308,0.0,2.0,93,0.00,,,0.00,0.0,meteohub,2013-10-19 09:32:00,
2013-10-19 05:37:00,41.9,40.1,29.97,NW,308,0.0,1.0,93,0.00,,,0.00,0.0,meteohub,2013-10-19 09:37:00,
2013-10-19 05:42:00,41.4,39.2,29.97,NW,308,1.0,1.0,92,0.00,,,0.00,0.0,meteohub,2013-10-19 09:42:00,
2013-10-19 05:47:00,41.5,39.7,29.98,NW,308,0.0,1.0,93,0.00,,,0.00,0.0,meteohub,2013-10-19 09:47:00,
2013-10-19 05:52:00,41.2,39.0,29.97,NW,308,0.0,1.0,92,0.00,,,0.00,0.0,meteohub,2013-10-19 09:52:00,
2013-10-19 05:57:00,41.2,39.4,29.97,NW,308,4.0,4.0,93,0.00,,,0.00,0.0,meteohub,2013-10-19 09:57:00,
2013-10-19 06:02:00,41.2,39.4,29.97,NW,308,0.0,4.0,93,0.00,,,0.00,0.0,meteohub,2013-10-19 10:02:00,
2013-10-19 06:07:00,40.5,38.3,29.96,NW,308,0.0,4.0,92,0.00,,,0.00,0.0,meteohub,2013-10-19 10:07:00,
2013-10-19 06:12:00,40.5,38.7,29.97,NW,308,0.0,4.0,93,0.00,,,0.00,0.0,meteohub,2013-10-19 10:12:00,
2013-10-19 06:17:00,40.6,38.8,29.96,NW,308,2.0,4.0,93,0.00,,,0.00,0.0,meteohub,2013-10-19 10:17:00,
2013-10-19 06:22:00,39.9,38.1,29.96,NW,308,1.0,4.0,93,0.00,,,0.00,0.0,meteohub,2013-10-19 10:22:00,
2013-10-19 06:27:00,40.5,38.7,29.96,NW,308,0.0,4.0,93,0.00,,,0.00,0.0,meteohub,2013-10-19 10:27:00,
2013-10-19 06:32:00,40.1,38.3,29.96,NW,308,0.0,4.0,93,0.00,,,0.00,0.0,meteohub,2013-10-19 10:32:00,
2013-10-19 06:37:00,40.3,38.5,29.96,NW,308,1.0,4.0,93,0.00,,,0.00,0.0,meteohub,2013-10-19 10:37:00,
2013-10-19 06:42:00,39.9,38.1,29.96,NW,308,0.0,4.0,93,0.00,,,0.00,0.0,meteohub,2013-10-19 10:42:00,
2013-10-19 06:47:00,39.9,38.1,29.96,NW,308,1.0,4.0,93,0.00,,,0.00,0.0,meteohub,2013-10-19 10:47:00,
2013-10-19 06:52:00,39.7,37.9,29.95,NW,308,1.0,4.0,93,0.00,,,0.00,0.0,meteohub,2013-10-19 10:52:00,
2013-10-19 06:57:00,39.7,37.9,29.95,NW,308,0.0,2.0,93,0.00,,,0.00,0.0,meteohub,2013-10-19 10:57:00,
2013-10-19 07:02:00,39.9,38.1,29.95,NW,308,0.0,4.0,93,0.00,,,0.00,0.0,meteohub,2013-10-19 11:02:00,
2013-10-19 07:07:00,39.9,38.1,29.95,NW,308,2.0,4.0,93,0.00,,,0.00,0.0,meteohub,2013-10-19 11:07:00,
2013-10-19 07:12:00,40.1,38.3,29.96,NW,308,2.0,2.0,93,0.00,,,0.00,5.0,meteohub,2013-10-19 11:12:00,
2013-10-19 07:17:00,40.1,38.3,29.96,NW,308,1.0,2.0,93,0.00,,,0.00,5.0,meteohub,2013-10-19 11:17:00,
2013-10-19 07:22:00,40.1,38.3,29.97,NW,308,1.0,2.0,93,0.00,,,0.00,7.0,meteohub,2013-10-19 11:22:00,
2013-10-19 07:27:00,39.7,37.9,29.97,NW,308,2.0,4.0,93,0.00,,,0.00,9.0,meteohub,2013-10-19 11:27:00,
2013-10-19 07:32:00,40.1,38.5,29.97,NW,311,2.0,4.0,94,0.00,,,0.00,16.0,meteohub,2013-10-19 11:32:00,
2013-10-19 07:37:00,40.3,38.7,29.97,NW,311,2.0,5.0,94,0.00,,,0.00,25.0,meteohub,2013-10-19 11:37:00,
2013-10-19 07:42:00,40.5,38.8,29.97,NW,311,4.0,5.0,94,0.00,,,0.00,28.0,meteohub,2013-10-19 11:42:00,
2013-10-19 07:47:00,40.6,39.0,29.97,NW,312,2.0,5.0,94,0.00,,,0.00,33.0,meteohub,2013-10-19 11:47:00,
2013-10-19 07:52:00,40.8,39.2,29.97,NW,312,2.0,5.0,94,0.00,,,0.00,35.0,meteohub,2013-10-19 11:52:00,
2013-10-19 07:57:00,41.4,39.7,29.97,NW,312,2.0,5.0,94,0.00,,,0.00,40.0,meteohub,2013-10-19 11:57:00,
2013-10-19 08:02:00,41.5,39.9,29.97,NW,312,1.0,5.0,94,0.00,,,0.00,39.0,meteohub,2013-10-19 12:02:00,
2013-10-19 08:07:00,42.1,40.5,29.98,NW,312,1.0,4.0,94,0.00,,,0.00,39.0,meteohub,2013-10-19 12:07:00,
2013-10-19 08:12:00,41.9,40.1,29.97,NW,312,1.0,2.0,93,0.00,,,0.00,30.0,meteohub,2013-10-19 12:12:00,
2013-10-19 08:17:00,41.9,40.1,29.98,NW,312,2.0,2.0,93,0.00,,,0.00,33.0,meteohub,2013-10-19 12:17:00,
2013-10-19 08:22:00,42.3,40.6,29.98,NW,312,2.0,4.0,94,0.00,,,0.00,120.0,meteohub,2013-10-19 12:22:00,
2013-10-19 08:27:00,43.2,41.5,29.98,NW,312,2.0,4.0,94,0.00,,,0.00,139.0,meteohub,2013-10-19 12:27:00,
2013-10-19 08:32:00,44.2,42.6,29.98,NW,312,4.0,4.0,94,0.00,,,0.00,167.0,meteohub,2013-10-19 12:32:00,
2013-10-19 08:37:00,45.0,43.0,29.98,NNW,331,2.0,5.0,93,0.00,,,0.00,183.0,meteohub,2013-10-19 12:37:00,
2013-10-19 08:42:00,45.9,43.9,29.98,NNW,331,2.0,6.0,93,0.00,,,0.00,118.0,meteohub,2013-10-19 12:42:00,
2013-10-19 08:47:00,46.2,44.1,29.98,NNW,331,0.0,6.0,92,0.00,,,0.00,193.0,meteohub,2013-10-19 12:47:00,
2013-10-19 08:52:00,47.5,45.3,29.97,NNW,331,4.0,5.0,92,0.00,,,0.00,186.0,meteohub,2013-10-19 12:52:00,
2013-10-19 08:57:00,48.6,46.0,29.97,NNW,331,0.0,5.0,91,0.00,,,0.00,232.0,meteohub,2013-10-19 12:57:00,
2013-10-19 09:02:00,49.8,46.8,29.97,NNW,331,5.0,5.0,89,0.00,,,0.00,251.0,meteohub,2013-10-19 13:02:00,
2013-10-19 09:07:00,51.1,47.1,29.97,NNW,331,0.0,5.0,86,0.00,,,0.00,279.0,meteohub,2013-10-19 13:07:00,
2013-10-19 09:12:00,51.8,46.8,29.97,NNW,331,0.0,5.0,83,0.00,,,0.00,281.0,meteohub,2013-10-19 13:12:00,
2013-10-19 09:17:00,53.1,48.0,29.98,NNW,331,0.0,5.0,83,0.00,,,0.00,283.0,meteohub,2013-10-19 13:17:00,
2013-10-19 09:22:00,54.7,48.6,29.98,NNW,331,0.0,2.0,80,0.00,,,0.00,338.0,meteohub,2013-10-19 13:22:00,
2013-10-19 09:27:00,55.8,49.3,29.97,NNW,331,0.0,2.0,79,0.00,,,0.00,367.0,meteohub,2013-10-19 13:27:00,
2013-10-19 09:32:00,56.7,49.5,29.97,NNW,331,0.0,2.0,77,0.00,,,0.00,366.0,meteohub,2013-10-19 13:32:00,
2013-10-19 09:37:00,57.4,49.1,29.98,NNW,331,0.0,0.0,74,0.00,,,0.00,230.0,meteohub,2013-10-19 13:37:00,
2013-10-19 09:42:00,57.7,49.5,29.98,NNW,336,0.0,1.0,74,0.00,,,0.00,162.0,meteohub,2013-10-19 13:42:00,
2013-10-19 09:47:00,58.6,50.4,29.97,North,9,0.0,1.0,74,0.00,,,0.00,237.0,meteohub,2013-10-19 13:47:00,
2013-10-19 09:52:00,59.5,50.5,29.98,North,9,0.0,1.0,72,0.00,,,0.00,304.0,meteohub,2013-10-19 13:52:00,
2013-10-19 09:57:00,59.7,49.5,29.98,North,9,0.0,0.0,69,0.00,,,0.00,204.0,meteohub,2013-10-19 13:57:00,
2013-10-19 10:02:00,59.7,50.0,29.97,North,9,0.0,1.0,70,0.00,,,0.00,163.0,meteohub,2013-10-19 14:02:00,
2013-10-19 10:07:00,60.6,51.1,29.98,North,9,0.0,1.0,71,0.00,,,0.00,206.0,meteohub,2013-10-19 14:07:00,
2013-10-19 10:12:00,60.6,50.7,29.97,North,5,0.0,1.0,70,0.00,,,0.00,171.0,meteohub,2013-10-19 14:12:00,
2013-10-19 10:17:00,60.6,51.1,29.97,ENE,69,0.0,1.0,71,0.00,,,0.00,193.0,meteohub,2013-10-19 14:17:00,
2013-10-19 10:22:00,59.9,49.6,29.97,SSE,165,1.0,1.0,69,0.00,,,0.00,223.0,meteohub,2013-10-19 14:22:00,
2013-10-19 10:27:00,59.7,50.4,29.97,SSE,167,0.0,4.0,71,0.00,,,0.00,255.0,meteohub,2013-10-19 14:27:00,
2013-10-19 10:32:00,60.4,51.1,29.97,SSE,167,0.0,4.0,71,0.00,,,0.00,229.0,meteohub,2013-10-19 14:32:00,
2013-10-19 10:37:00,60.8,50.9,29.96,SSE,167,0.0,4.0,70,0.00,,,0.00,267.0,meteohub,2013-10-19 14:37:00,
2013-10-19 10:42:00,61.0,51.1,29.96,SSE,167,1.0,1.0,70,0.00,,,0.00,279.0,meteohub,2013-10-19 14:42:00,
2013-10-19 10:47:00,61.3,51.1,29.95,SSE,167,0.0,1.0,69,0.00,,,0.00,339.0,meteohub,2013-10-19 14:47:00,
2013-10-19 10:52:00,61.7,50.7,29.96,SSE,167,0.0,1.0,67,0.00,,,0.00,413.0,meteohub,2013-10-19 14:52:00,
2013-10-19 10:57:00,61.5,50.0,29.96,SSE,159,4.0,5.0,66,0.00,,,0.00,396.0,meteohub,2013-10-19 14:57:00,
2013-10-19 11:02:00,61.3,50.7,29.96,South,187,2.0,6.0,68,0.00,,,0.00,288.0,meteohub,2013-10-19 15:02:00,
2013-10-19 11:07:00,61.9,51.3,29.97,South,188,2.0,6.0,68,0.00,,,0.00,241.0,meteohub,2013-10-19 15:07:00,
2013-10-19 11:12:00,61.7,51.4,29.96,South,178,4.0,6.0,69,0.00,,,0.00,262.0,meteohub,2013-10-19 15:12:00,
2013-10-19 11:17:00,61.7,51.4,29.96,South,178,0.0,6.0,69,0.00,,,0.00,320.0,meteohub,2013-10-19 15:17:00,
2013-10-19 11:22:00,62.2,52.0,29.96,SSW,211,3.0,6.0,69,0.00,,,0.00,320.0,meteohub,2013-10-19 15:22:00,
2013-10-19 11:27:00,62.2,51.6,29.96,SSE,163,1.0,7.0,68,0.00,,,0.00,425.0,meteohub,2013-10-19 15:27:00,
2013-10-19 11:32:00,62.1,51.4,29.96,SSW,192,0.0,8.0,68,0.00,,,0.00,339.0,meteohub,2013-10-19 15:32:00,
2013-10-19 11:37:00,62.2,52.0,29.95,South,172,5.0,8.0,69,0.00,,,0.00,457.0,meteohub,2013-10-19 15:37:00,
2013-10-19 11:42:00,63.1,52.3,29.95,SSE,160,0.0,8.0,68,0.00,,,0.00,527.0,meteohub,2013-10-19 15:42:00,
2013-10-19 11:47:00,63.3,53.1,29.95,South,173,5.0,6.0,69,0.00,,,0.00,424.0,meteohub,2013-10-19 15:47:00,
2013-10-19 11:52:00,63.0,53.1,29.95,SSE,154,6.0,8.0,70,0.00,,,0.00,536.0,meteohub,2013-10-19 15:52:00,
2013-10-19 11:57:00,63.1,53.2,29.94,SSE,165,2.0,8.0,70,0.00,,,0.00,573.0,meteohub,2013-10-19 15:57:00,
2013-10-19 12:02:00,63.3,53.8,29.95,SSW,205,4.0,8.0,71,0.00,,,0.00,501.0,meteohub,2013-10-19 16:02:00,
2013-10-19 12:07:00,63.7,54.9,29.94,ESE,108,2.0,9.0,73,0.00,,,0.00,503.0,meteohub,2013-10-19 16:07:00,
2013-10-19 12:12:00,64.0,54.1,29.94,South,177,6.0,9.0,70,0.00,,,0.00,311.0,meteohub,2013-10-19 16:12:00,
2013-10-19 12:17:00,63.9,55.0,29.94,South,186,5.0,8.0,73,0.00,,,0.00,592.0,meteohub,2013-10-19 16:17:00,
2013-10-19 12:22:00,63.7,54.9,29.94,SSE,155,6.0,9.0,73,0.00,,,0.00,339.0,meteohub,2013-10-19 16:22:00,
2013-10-19 12:27:00,63.0,54.5,29.94,SSE,156,4.0,9.0,74,0.00,,,0.00,557.0,meteohub,2013-10-19 16:27:00,
2013-10-19 12:32:00,63.7,55.2,29.94,SSW,202,7.0,9.0,74,0.00,,,0.00,373.0,meteohub,2013-10-19 16:32:00,
2013-10-19 12:37:00,63.0,54.5,29.94,SSE,149,4.0,9.0,74,0.00,,,0.00,292.0,meteohub,2013-10-19 16:37:00,
2013-10-19 12:42:00,62.8,54.3,29.93,SE,136,4.0,9.0,74,0.00,,,0.00,329.0,meteohub,2013-10-19 16:42:00,
2013-10-19 12:47:00,63.5,54.3,29.92,SSE,156,5.0,9.0,72,0.00,,,0.00,320.0,meteohub,2013-10-19 16:47:00,
2013-10-19 12:52:00,63.1,54.0,29.92,SSE,155,2.0,8.0,72,0.00,,,0.00,297.0,meteohub,2013-10-19 16:52:00,
2013-10-19 12:57:00,63.1,53.2,29.92,ESE,118,5.0,8.0,70,0.00,,,0.00,244.0,meteohub,2013-10-19 16:57:00,
2013-10-19 13:02:00,63.3,53.1,29.91,SSE,162,4.0,8.0,69,0.00,,,0.00,325.0,meteohub,2013-10-19 17:02:00,
2013-10-19 13:07:00,63.1,50.7,29.91,South,175,4.0,8.0,64,0.00,,,0.00,260.0,meteohub,2013-10-19 17:07:00,
2013-10-19 13:12:00,63.0,51.1,29.91,South,172,2.0,8.0,65,0.00,,,0.00,251.0,meteohub,2013-10-19 17:12:00,
2013-10-19 13:17:00,63.5,51.1,29.91,South,184,2.0,8.0,64,0.00,,,0.00,267.0,meteohub,2013-10-19 17:17:00,
2013-10-19 13:22:00,63.5,49.8,29.91,SSE,158,2.0,8.0,61,0.00,,,0.00,315.0,meteohub,2013-10-19 17:22:00,
2013-10-19 13:27:00,64.0,49.8,29.91,SW,218,4.0,6.0,60,0.00,,,0.00,339.0,meteohub,2013-10-19 17:27:00,
2013-10-19 13:32:00,63.5,49.3,29.91,South,183,7.0,8.0,60,0.00,,,0.00,446.0,meteohub,2013-10-19 17:32:00,
2013-10-19 13:37:00,63.1,49.5,29.91,SSE,153,7.0,12.0,61,0.00,,,0.00,287.0,meteohub,2013-10-19 17:37:00,
2013-10-19 13:42:00,63.0,49.3,29.91,South,186,3.0,12.0,61,0.00,,,0.00,336.0,meteohub,2013-10-19 17:42:00,
2013-10-19 13:47:00,63.7,49.5,29.90,SSW,192,4.0,12.0,60,0.00,,,0.00,345.0,meteohub,2013-10-19 17:47:00,
2013-10-19 13:52:00,63.3,49.3,29.90,South,186,6.0,10.0,60,0.00,,,0.00,241.0,meteohub,2013-10-19 17:52:00,
2013-10-19 13:57:00,63.0,48.4,29.89,SSE,166,4.0,10.0,59,0.00,,,0.00,285.0,meteohub,2013-10-19 17:57:00,
2013-10-19 14:02:00,63.1,49.5,29.89,South,182,2.0,10.0,61,0.00,,,0.00,244.0,meteohub,2013-10-19 18:02:00,
2013-10-19 14:07:00,63.3,50.5,29.89,SSE,150,4.0,10.0,63,0.00,,,0.00,206.0,meteohub,2013-10-19 18:07:00,
2013-10-19 14:12:00,63.1,49.5,29.89,South,179,2.0,8.0,61,0.00,,,0.00,239.0,meteohub,2013-10-19 18:12:00,
2013-10-19 14:17:00,63.1,50.4,29.89,SSE,153,2.0,9.0,63,0.00,,,0.00,255.0,meteohub,2013-10-19 18:17:00,
2013-10-19 14:22:00,63.9,51.1,29.89,South,188,3.0,9.0,63,0.00,,,0.00,269.0,meteohub,2013-10-19 18:22:00,
2013-10-19 14:27:00,64.0,49.5,29.89,SSE,148,6.0,9.0,59,0.00,,,0.00,323.0,meteohub,2013-10-19 18:27:00,
2013-10-19 14:32:00,63.9,49.3,29.89,SW,221,3.0,8.0,59,0.00,,,0.00,265.0,meteohub,2013-10-19 18:32:00,
2013-10-19 14:37:00,64.0,50.4,29.89,SSE,150,1.0,8.0,61,0.00,,,0.00,188.0,meteohub,2013-10-19 18:37:00,
2013-10-19 14:42:00,64.0,49.5,29.89,South,188,3.0,8.0,59,0.00,,,0.00,181.0,meteohub,2013-10-19 18:42:00,
2013-10-19 14:47:00,64.0,48.6,29.89,South,169,1.0,10.0,57,0.00,,,0.00,241.0,meteohub,2013-10-19 18:47:00,
2013-10-19 14:52:00,64.4,47.8,29.89,SSE,167,0.0,10.0,55,0.00,,,0.00,190.0,meteohub,2013-10-19 18:52:00,
2013-10-19 14:57:00,64.4,47.5,29.88,SSE,156,4.0,6.0,54,0.00,,,0.00,156.0,meteohub,2013-10-19 18:57:00,
2013-10-19 15:02:00,64.2,47.7,29.88,South,188,1.0,10.0,55,0.00,,,0.00,160.0,meteohub,2013-10-19 19:02:00,
2013-10-19 15:07:00,64.0,47.5,29.88,SSW,200,4.0,10.0,55,0.00,,,0.00,190.0,meteohub,2013-10-19 19:07:00,
2013-10-19 15:12:00,63.9,46.9,29.87,South,179,4.0,10.0,54,0.00,,,0.00,149.0,meteohub,2013-10-19 19:12:00,
2013-10-19 15:17:00,64.0,47.1,29.87,SSW,192,7.0,10.0,54,0.00,,,0.00,218.0,meteohub,2013-10-19 19:17:00,
2013-10-19 15:22:00,64.0,47.5,29.86,South,180,2.0,10.0,55,0.00,,,0.00,192.0,meteohub,2013-10-19 19:22:00,
2013-10-19 15:27:00,64.2,48.2,29.86,SSE,167,4.0,10.0,56,0.00,,,0.00,178.0,meteohub,2013-10-19 19:27:00,
2013-10-19 15:32:00,64.9,47.8,29.86,SSE,167,0.0,10.0,54,0.00,,,0.00,135.0,meteohub,2013-10-19 19:32:00,
2013-10-19 15:37:00,64.8,48.2,29.86,SSE,160,2.0,6.0,55,0.00,,,0.00,128.0,meteohub,2013-10-19 19:37:00,
2013-10-19 15:42:00,64.8,48.2,29.86,South,188,3.0,7.0,55,0.00,,,0.00,116.0,meteohub,2013-10-19 19:42:00,
2013-10-19 15:47:00,64.4,48.4,29.85,South,172,4.0,7.0,56,0.00,,,0.00,86.0,meteohub,2013-10-19 19:47:00,
2013-10-19 15:52:00,64.2,48.7,29.84,South,191,4.0,9.0,57,0.00,,,0.00,77.0,meteohub,2013-10-19 19:52:00,
2013-10-19 15:57:00,63.9,48.4,29.85,SE,130,4.0,9.0,57,0.00,,,0.00,74.0,meteohub,2013-10-19 19:57:00,
2013-10-19 16:02:00,63.9,49.3,29.85,South,173,6.0,9.0,59,0.00,,,0.00,104.0,meteohub,2013-10-19 20:02:00,
2013-10-19 16:07:00,63.7,49.1,29.86,South,187,5.0,9.0,59,0.00,,,0.00,97.0,meteohub,2013-10-19 20:07:00,
2013-10-19 16:12:00,63.9,49.3,29.86,South,191,0.0,9.0,59,0.00,,,0.00,77.0,meteohub,2013-10-19 20:12:00,
2013-10-19 16:17:00,63.9,49.3,29.86,SE,144,4.0,9.0,59,0.00,,,0.00,62.0,meteohub,2013-10-19 20:17:00,
2013-10-19 16:22:00,63.7,49.1,29.85,South,170,2.0,12.0,59,0.00,,,0.00,58.0,meteohub,2013-10-19 20:22:00,
2013-10-19 16:27:00,63.5,48.9,29.85,South,176,5.0,12.0,59,0.00,,,0.00,77.0,meteohub,2013-10-19 20:27:00,
2013-10-19 16:33:00,63.7,49.1,29.83,SSE,163,2.0,12.0,59,0.00,,,0.00,79.0,meteohub,2013-10-19 20:33:00,
2013-10-19 16:38:00,63.5,48.9,29.84,South,178,1.0,8.0,59,0.00,,,0.00,42.0,meteohub,2013-10-19 20:38:00,
2013-10-19 16:43:00,63.3,49.3,29.84,SSE,163,5.0,8.0,60,0.00,,,0.00,30.0,meteohub,2013-10-19 20:43:00,
2013-10-19 16:48:00,63.1,49.1,29.83,SE,146,2.0,10.0,60,0.00,,,0.00,46.0,meteohub,2013-10-19 20:48:00,
2013-10-19 16:53:00,63.0,48.4,29.83,SE,127,5.0,10.0,59,0.00,,,0.00,42.0,meteohub,2013-10-19 20:53:00,
2013-10-19 16:58:00,63.0,48.9,29.83,South,169,0.0,14.0,60,0.00,,,0.00,26.0,meteohub,2013-10-19 20:58:00,
2013-10-19 17:03:00,62.8,48.7,29.81,SE,138,5.0,14.0,60,0.00,,,0.00,19.0,meteohub,2013-10-19 21:03:00,
2013-10-19 17:09:00,62.6,48.6,29.81,South,178,0.0,14.0,60,0.00,,,0.00,19.0,meteohub,2013-10-19 21:09:00,
2013-10-19 17:14:00,62.2,48.6,29.81,South,176,4.0,8.0,61,0.00,,,0.00,25.0,meteohub,2013-10-19 21:14:00,
2013-10-19 17:19:00,62.4,48.7,29.81,South,175,1.0,8.0,61,0.00,,,0.00,19.0,meteohub,2013-10-19 21:19:00,
2013-10-19 17:24:00,62.2,48.6,29.80,SE,137,0.0,9.0,61,0.00,,,0.00,9.0,meteohub,2013-10-19 21:24:00,
2013-10-19 17:29:00,62.2,48.6,29.82,South,179,2.0,9.0,61,0.00,,,0.00,9.0,meteohub,2013-10-19 21:29:00,
2013-10-19 17:34:00,61.9,48.7,29.82,SSW,208,0.0,9.0,62,0.00,,,0.00,12.0,meteohub,2013-10-19 21:34:00,
2013-10-19 17:40:00,61.9,49.1,29.81,SSW,205,0.0,9.0,63,0.00,,,0.00,5.0,meteohub,2013-10-19 21:40:00,
2013-10-19 17:45:00,61.9,49.1,29.81,SSE,148,0.0,6.0,63,0.00,,,0.00,7.0,meteohub,2013-10-19 21:45:00,
2013-10-19 17:50:00,61.7,48.9,29.80,South,183,2.0,5.0,63,0.00,,,0.00,5.0,meteohub,2013-10-19 21:50:00,
2013-10-19 17:55:00,61.5,48.7,29.80,South,178,5.0,7.0,63,0.00,,,0.00,0.0,meteohub,2013-10-19 21:55:00,
2013-10-19 18:00:00,61.5,48.7,29.79,SE,146,5.0,7.0,63,0.00,,,0.00,0.0,meteohub,2013-10-19 22:00:00,
2013-10-19 18:05:00,61.5,48.7,29.81,SE,140,7.0,7.0,63,0.00,,,0.00,0.0,meteohub,2013-10-19 22:05:00,
2013-10-19 18:10:00,61.5,49.3,29.80,South,178,0.0,7.0,64,0.00,,,0.00,0.0,meteohub,2013-10-19 22:10:00,
2013-10-19 18:16:00,61.3,49.1,29.80,South,185,0.0,7.0,64,0.00,,,0.00,0.0,meteohub,2013-10-19 22:16:00,
2013-10-19 18:21:00,61.3,49.5,29.81,SSW,194,0.0,7.0,65,0.00,,,0.00,0.0,meteohub,2013-10-19 22:21:00,
2013-10-19 18:26:00,61.2,49.3,29.82,South,189,0.0,6.0,65,0.00,,,0.00,0.0,meteohub,2013-10-19 22:26:00,
2013-10-19 18:31:00,61.2,49.3,29.81,SSE,164,4.0,5.0,65,0.00,,,0.00,0.0,meteohub,2013-10-19 22:31:00,
2013-10-19 18:36:00,61.2,49.3,29.81,SSE,163,4.0,5.0,65,0.00,,,0.00,0.0,meteohub,2013-10-19 22:36:00,
2013-10-19 18:41:00,61.2,49.6,29.81,South,173,4.0,5.0,66,0.00,,,0.00,0.0,meteohub,2013-10-19 22:41:00,
2013-10-19 18:46:00,61.0,49.1,29.82,SSE,157,0.0,6.0,65,0.00,,,0.00,0.0,meteohub,2013-10-19 22:46:00,
2013-10-19 18:52:00,61.0,49.1,29.82,SSE,158,0.0,6.0,65,0.00,,,0.00,0.0,meteohub,2013-10-19 22:52:00,
2013-10-19 18:57:00,61.0,49.5,29.83,South,173,5.0,6.0,66,0.00,,,0.00,0.0,meteohub,2013-10-19 22:57:00,
2013-10-19 19:02:00,61.0,49.5,29.81,SSE,150,4.0,7.0,66,0.00,,,0.00,0.0,meteohub,2013-10-19 23:02:00,
2013-10-19 19:07:00,61.2,49.6,29.80,ESE,119,2.0,7.0,66,0.00,,,0.00,0.0,meteohub,2013-10-19 23:07:00,
2013-10-19 19:12:00,61.2,49.6,29.80,SSE,151,2.0,8.0,66,0.00,,,0.00,0.0,meteohub,2013-10-19 23:12:00,
2013-10-19 19:17:00,61.2,49.6,29.81,South,171,1.0,8.0,66,0.00,,,0.00,0.0,meteohub,2013-10-19 23:17:00,
2013-10-19 19:22:00,61.0,50.0,29.80,South,181,5.0,8.0,67,0.00,,,0.00,0.0,meteohub,2013-10-19 23:22:00,
2013-10-19 19:27:00,61.0,50.0,29.80,South,176,0.0,8.0,67,0.00,,,0.00,0.0,meteohub,2013-10-19 23:27:00,
2013-10-19 19:32:00,61.2,50.2,29.80,SSE,161,2.0,7.0,67,0.00,,,0.00,0.0,meteohub,2013-10-19 23:32:00,
2013-10-19 19:37:00,61.2,50.5,29.80,SSE,147,1.0,7.0,68,0.00,,,0.00,0.0,meteohub,2013-10-19 23:37:00,
2013-10-19 19:42:00,61.0,50.4,29.79,South,186,3.0,9.0,68,0.00,,,0.00,0.0,meteohub,2013-10-19 23:42:00,
2013-10-19 19:47:00,60.8,50.2,29.79,SE,146,0.0,9.0,68,0.00,,,0.00,0.0,meteohub,2013-10-19 23:47:00,
2013-10-19 19:52:00,61.0,50.0,29.80,SE,146,0.0,8.0,67,0.00,,,0.00,0.0,meteohub,2013-10-19 23:52:00,
2013-10-19 19:57:00,60.8,50.2,29.80,SSE,152,0.0,6.0,68,0.00,,,0.00,0.0,meteohub,2013-10-19 23:57:00,
2013-10-19 20:02:00,60.6,50.4,29.80,South,178,6.0,6.0,69,0.00,,,0.00,0.0,meteohub,2013-10-20 00:02:00,
2013-10-19 20:07:00,60.6,50.7,29.79,SE,144,1.0,6.0,70,0.00,,,0.00,0.0,meteohub,2013-10-20 00:07:00,
2013-10-19 20:12:00,60.4,51.1,29.79,SSE,155,0.0,6.0,71,0.00,,,0.00,0.0,meteohub,2013-10-20 00:12:00,
2013-10-19 20:17:00,60.4,51.8,29.78,SSE,157,0.0,6.0,73,0.00,,,0.00,0.0,meteohub,2013-10-20 00:17:00,
2013-10-19 20:22:00,60.3,52.0,29.79,South,180,6.0,6.0,74,0.00,,,0.00,0.0,meteohub,2013-10-20 00:22:00,
2013-10-19 20:27:00,60.3,52.0,29.78,SE,141,4.0,8.0,74,0.00,,,0.00,0.0,meteohub,2013-10-20 00:27:00,
2013-10-19 20:32:00,60.3,52.3,29.78,SSE,162,2.0,8.0,75,0.00,,,0.00,0.0,meteohub,2013-10-20 00:32:00,
2013-10-19 20:37:00,60.3,52.3,29.78,SSE,150,4.0,8.0,75,0.00,,,0.00,0.0,meteohub,2013-10-20 00:37:00,
2013-10-19 20:42:00,60.3,52.7,29.78,South,178,2.0,7.0,76,0.00,,,0.00,0.0,meteohub,2013-10-20 00:42:00,
2013-10-19 20:47:00,60.1,52.5,29.78,SSE,161,4.0,7.0,76,0.00,,,0.00,0.0,meteohub,2013-10-20 00:47:00,
2013-10-19 20:52:00,60.1,52.5,29.78,South,188,0.0,7.0,76,0.00,,,0.00,0.0,meteohub,2013-10-20 00:52:00,
2013-10-19 20:57:00,60.1,52.9,29.78,South,178,4.0,7.0,77,0.00,,,0.00,0.0,meteohub,2013-10-20 00:57:00,
2013-10-19 21:02:00,60.1,52.9,29.78,South,176,1.0,5.0,77,0.00,,,0.00,0.0,meteohub,2013-10-20 01:02:00,
2013-10-19 21:07:00,60.1,52.9,29.78,South,171,0.0,6.0,77,0.00,,,0.00,0.0,meteohub,2013-10-20 01:07:00,
2013-10-19 21:12:00,59.7,52.9,29.77,South,171,0.0,6.0,78,0.00,,,0.00,0.0,meteohub,2013-10-20 01:12:00,
2013-10-19 21:17:00,59.7,52.9,29.77,SSE,148,0.0,6.0,78,0.00,,,0.00,0.0,meteohub,2013-10-20 01:17:00,
2013-10-19 21:22:00,59.7,52.9,29.77,South,175,0.0,6.0,78,0.00,,,0.00,0.0,meteohub,2013-10-20 01:22:00,
2013-10-19 21:27:00,59.7,53.2,29.77,SSE,166,0.0,6.0,79,0.00,,,0.00,0.0,meteohub,2013-10-20 01:27:00,
2013-10-19 21:32:00,59.7,53.2,29.77,South,186,0.0,6.0,79,0.00,,,0.00,0.0,meteohub,2013-10-20 01:32:00,
2013-10-19 21:37:00,59.7,53.2,29.77,South,179,0.0,7.0,79,0.00,,,0.00,0.0,meteohub,2013-10-20 01:37:00,
2013-10-19 21:42:00,59.7,53.2,29.78,SSE,165,2.0,7.0,79,0.00,,,0.00,0.0,meteohub,2013-10-20 01:42:00,
2013-10-19 21:47:00,59.7,53.2,29.77,South,179,2.0,7.0,79,0.00,,,0.00,0.0,meteohub,2013-10-20 01:47:00,
2013-10-19 21:52:00,59.7,53.2,29.78,South,187,3.0,5.0,79,0.00,,,0.00,0.0,meteohub,2013-10-20 01:52:00,
2013-10-19 21:57:00,59.7,52.9,29.78,South,173,1.0,8.0,78,0.00,,,0.00,0.0,meteohub,2013-10-20 01:57:00,
2013-10-19 22:02:00,60.1,53.2,29.78,South,183,1.0,8.0,78,0.00,,,0.00,0.0,meteohub,2013-10-20 02:02:00,
2013-10-19 22:07:00,60.1,53.2,29.78,SSE,154,0.0,8.0,78,0.00,,,0.00,0.0,meteohub,2013-10-20 02:07:00,
2013-10-19 22:12:00,60.1,53.2,29.77,South,173,0.0,8.0,78,0.00,,,0.00,0.0,meteohub,2013-10-20 02:12:00,
2013-10-19 22:17:00,60.3,53.4,29.77,South,175,2.0,8.0,78,0.00,,,0.00,0.0,meteohub,2013-10-20 02:17:00,
2013-10-19 22:22:00,60.1,53.6,29.77,SSW,195,7.0,8.0,79,0.00,,,0.00,0.0,meteohub,2013-10-20 02:22:00,
2013-10-19 22:27:00,60.3,53.8,29.76,SW,232,2.0,11.0,79,0.00,,,0.00,0.0,meteohub,2013-10-20 02:27:00,
2013-10-19 22:32:00,60.1,53.6,29.76,SSE,167,7.0,11.0,79,0.00,,,0.00,0.0,meteohub,2013-10-20 02:32:00,
2013-10-19 22:37:00,60.3,54.1,29.76,South,174,0.0,11.0,80,0.00,,,0.00,0.0,meteohub,2013-10-20 02:37:00,
2013-10-19 22:42:00,60.3,54.1,29.76,SSW,197,2.0,9.0,80,0.00,,,0.00,0.0,meteohub,2013-10-20 02:42:00,
2013-10-19 22:47:00,60.3,54.3,29.76,South,190,5.0,9.0,81,0.00,,,0.00,0.0,meteohub,2013-10-20 02:47:00,
2013-10-19 22:52:00,60.4,54.5,29.75,SW,236,5.0,9.0,81,0.00,,,0.00,0.0,meteohub,2013-10-20 02:52:00,
2013-10-19 22:57:00,60.4,54.5,29.75,South,170,0.0,11.0,81,0.00,,,0.00,0.0,meteohub,2013-10-20 02:57:00,
2013-10-19 23:02:00,60.6,54.7,29.75,SSE,161,2.0,11.0,81,0.00,,,0.00,0.0,meteohub,2013-10-20 03:02:00,
2013-10-19 23:07:00,60.6,54.7,29.75,South,187,1.0,15.0,81,0.00,,,0.00,0.0,meteohub,2013-10-20 03:07:00,
2013-10-19 23:12:00,60.6,54.7,29.75,SSE,155,8.0,15.0,81,0.00,,,0.00,0.0,meteohub,2013-10-20 03:12:00,
2013-10-19 23:17:00,60.6,54.5,29.75,South,176,5.0,15.0,80,0.00,,,0.00,0.0,meteohub,2013-10-20 03:17:00,
2013-10-19 23:22:00,60.6,54.5,29.75,SSE,159,4.0,8.0,80,0.00,,,0.00,0.0,meteohub,2013-10-20 03:22:00,
2013-10-19 23:27:00,60.6,54.7,29.75,South,183,3.0,8.0,81,0.00,,,0.00,0.0,meteohub,2013-10-20 03:27:00,
2013-10-19 23:32:00,60.6,54.7,29.75,South,191,7.0,10.0,81,0.00,,,0.00,0.0,meteohub,2013-10-20 03:32:00,
2013-10-19 23:37:00,60.6,55.0,29.74,South,176,4.0,14.0,82,0.00,,,0.00,0.0,meteohub,2013-10-20 03:37:00,
2013-10-19 23:42:00,60.8,55.2,29.74,South,177,4.0,14.0,82,0.00,,,0.00,0.0,meteohub,2013-10-20 03:42:00,
2013-10-19 23:47:00,60.8,55.6,29.74,SW,226,4.0,14.0,83,0.00,,,0.00,0.0,meteohub,2013-10-20 03:47:00,
2013-10-19 23:52:00,60.8,55.9,29.74,SSW,193,4.0,11.0,84,0.00,,,0.00,0.0,meteohub,2013-10-20 03:52:00,
2013-10-19 23:57:00,60.8,55.9,29.73,South,182,5.0,11.0,84,0.00,,,0.00,0.0,meteohub,2013-10-20 03:57:00,